Time;durP1;ratioP1;P1;durP2;ratioP2;P2;SDS_P1;SDS_P2;PMS_P1;PMS_P2;Temp;Humidity;BMP_temperature;BMP_pressure;BME280_temperature;BME280_humidity;BME280_pressure;Samples;Min_cycle;Max_cycle;Signal;HPM_P1;HPM_P2
2022/03/28 00:02:10;;;;;;;14.45;2.70;;;;;;;5.60;79.80;100896.06;5042740;28;20029;-74
2022/03/28 00:04:35;;;;;;;14.40;3.10;;;;;;;5.47;79.86;100884.66;5042601;28;20022;-74
2022/03/28 00:07:01;;;;;;;21.70;3.20;;;;;;;5.53;79.88;100897.66;5042752;28;20033;-74
2022/03/28 00:09:26;;;;;;;16.65;2.28;;;;;;;5.52;79.74;100893.34;5042604;28;20025;-74
2022/03/28 00:11:51;;;;;;;16.67;3.30;;;;;;;5.45;79.74;100884.63;5042918;28;20073;-74
2022/03/28 00:14:17;;;;;;;14.10;2.65;;;;;;;5.45;79.64;100887.19;5042627;28;20022;-73
2022/03/28 00:16:42;;;;;;;12.02;2.22;;;;;;;5.43;79.37;100877.72;5042908;28;20022;-74
2022/03/28 00:19:07;;;;;;;15.60;2.88;;;;;;;5.42;79.60;100882.00;5024795;28;20056;-73
2022/03/28 00:21:33;;;;;;;14.27;2.80;;;;;;;5.40;79.82;100875.94;5042792;28;20025;-73
2022/03/28 00:23:58;;;;;;;13.38;2.92;;;;;;;5.40;79.82;100880.22;5042269;28;20337;-72
2022/03/28 00:26:24;;;;;;;16.23;3.00;;;;;;;5.37;79.91;100881.00;5042658;28;20029;-73
2022/03/28 00:28:49;;;;;;;19.40;3.65;;;;;;;5.33;79.52;100874.06;5042643;28;20029;-73
2022/03/28 00:31:15;;;;;;;9.70;2.35;;;;;;;5.30;79.80;100862.00;5042574;28;20021;-73
2022/03/28 00:33:41;;;;;;;14.20;2.22;;;;;;;5.23;79.99;100856.69;5042509;28;20465;-72
2022/03/28 00:36:06;;;;;;;26.92;5.15;;;;;;;5.20;80.13;100842.94;5042634;28;20026;-74
2022/03/28 00:38:32;;;;;;;16.15;2.70;;;;;;;5.24;80.22;100858.44;5024850;28;20013;-74
2022/03/28 00:40:58;;;;;;;18.80;3.05;;;;;;;5.23;80.52;100848.97;5042230;28;20037;-73
2022/03/28 00:43:23;;;;;;;11.15;2.50;;;;;;;5.21;80.50;100852.38;5042603;28;20029;-74
2022/03/28 00:45:48;;;;;;;13.05;3.13;;;;;;;5.19;80.92;100846.31;5046579;28;20052;-74
2022/03/28 00:48:14;;;;;;;24.27;3.65;;;;;;;5.20;80.88;100840.34;5046594;28;20032;-74
2022/03/28 00:50:40;;;;;;;9.88;2.67;;;;;;;5.24;80.52;100835.28;5028519;28;20501;-74
2022/03/28 00:53:09;;;;;;;13.88;2.40;;;;;;;5.17;80.66;100827.44;5028472;28;20024;-73
2022/03/28 00:55:34;;;;;;;12.32;2.35;;;;;;;5.20;80.59;100832.63;5045984;28;20561;-73
2022/03/28 00:57:59;;;;;;;8.38;2.33;;;;;;;5.16;80.45;100827.41;5046164;28;20036;-74
2022/03/28 01:00:25;;;;;;;15.82;2.38;;;;;;;5.11;80.51;100827.31;5045979;28;20527;-74
2022/03/28 01:02:50;;;;;;;14.80;2.88;;;;;;;5.14;80.67;100817.06;5046171;28;20033;-74
2022/03/28 01:05:16;;;;;;;15.63;3.42;;;;;;;5.17;80.29;100822.28;5045851;28;20304;-73
2022/03/28 01:07:42;;;;;;;18.83;3.03;;;;;;;5.15;80.29;100826.50;5046705;28;20406;-74
2022/03/28 01:10:10;;;;;;;15.63;3.10;;;;;;;5.18;80.12;100824.00;5045636;28;20025;-73
2022/03/28 01:12:37;;;;;;;11.75;3.03;;;;;;;5.16;79.93;100820.53;5046174;28;20018;-75
2022/03/28 01:15:04;;;;;;;20.13;3.72;;;;;;;5.18;79.68;100813.72;5028177;28;20025;-73
2022/03/28 01:20:13;;;;;;;17.20;4.97;;;;;;;5.14;80.42;100796.47;5045440;28;20093;-73
2022/03/28 01:22:38;;;;;;;9.60;2.25;;;;;;;5.08;80.42;100792.06;5045627;28;20045;-74
2022/03/28 01:25:06;;;;;;;16.58;3.65;;;;;;;5.16;80.70;100799.94;5027506;28;20397;-73
2022/03/28 01:27:32;;;;;;;15.60;3.08;;;;;;;5.12;80.47;100785.28;5045712;28;20025;-74
2022/03/28 01:29:58;;;;;;;14.00;3.25;;;;;;;5.15;80.38;100798.19;5027563;28;20026;-73
2022/03/28 01:32:23;;;;;;;9.65;3.70;;;;;;;5.15;80.46;100781.88;5045559;28;20024;-74
2022/03/28 01:34:49;;;;;;;16.10;3.08;;;;;;;5.23;80.37;100784.59;5045349;28;20331;-74
2022/03/28 01:37:14;;;;;;;15.85;4.07;;;;;;;5.17;80.09;100768.22;5045649;28;20036;-74
2022/03/28 01:39:40;;;;;;;10.88;3.65;;;;;;;5.22;79.93;100778.59;5045076;28;20053;-73
2022/03/28 01:42:05;;;;;;;17.27;3.40;;;;;;;5.20;79.70;100769.97;5026974;28;20056;-74
2022/03/28 01:44:30;;;;;;;17.75;3.70;;;;;;;5.17;79.81;100768.22;5045015;28;20029;-74
2022/03/28 01:46:57;;;;;;;27.25;3.92;;;;;;;5.16;79.66;100763.03;5045345;28;20049;-73
2022/03/28 01:49:22;;;;;;;14.23;3.55;;;;;;;5.14;79.85;100773.31;5045166;28;20538;-75
2022/03/28 01:51:49;;;;;;;13.23;3.42;;;;;;;5.18;80.10;100769.06;5044970;28;20029;-75
2022/03/28 01:54:16;;;;;;;19.58;5.70;;;;;;;5.21;79.86;100767.44;5044734;28;20075;-74
2022/03/28 01:56:41;;;;;;;14.90;3.75;;;;;;;5.18;79.95;100769.94;5044345;28;20707;-75
2022/03/28 01:59:08;;;;;;;18.50;4.68;;;;;;;5.20;79.85;100764.81;5045068;28;20526;-75
2022/03/28 02:01:35;;;;;;;15.52;4.82;;;;;;;5.26;79.66;100772.66;5044934;28;20063;-74
2022/03/28 02:04:00;;;;;;;13.18;4.43;;;;;;;5.25;79.58;100770.06;5044599;28;20044;-74
2022/03/28 02:06:26;;;;;;;18.55;4.32;;;;;;;5.23;79.45;100772.59;5027014;28;20017;-75
2022/03/28 02:08:52;;;;;;;20.60;4.82;;;;;;;5.19;79.54;100750.22;5045044;28;20028;-75
2022/03/28 02:11:17;;;;;;;14.35;4.50;;;;;;;5.18;80.05;100745.91;5044699;28;20045;-76
2022/03/28 02:13:43;;;;;;;15.38;5.30;;;;;;;5.17;79.56;100744.19;5026902;28;20021;-74
2022/03/28 02:16:09;;;;;;;22.70;5.65;;;;;;;5.15;79.64;100728.69;5044420;28;20094;-74
2022/03/28 02:18:34;;;;;;;15.82;5.10;;;;;;;5.12;79.76;100733.78;5044841;28;20034;-74
2022/03/28 02:21:00;;;;;;;20.70;5.50;;;;;;;5.15;79.95;100728.69;5044594;28;20040;-74
2022/03/28 02:23:26;;;;;;;25.35;6.80;;;;;;;5.17;80.10;100732.19;5044417;28;20032;-75
2022/03/28 02:25:51;;;;;;;17.77;5.03;;;;;;;5.13;80.00;100734.69;5026301;28;20032;-75
2022/03/28 02:28:17;;;;;;;14.70;4.20;;;;;;;5.10;80.15;100729.47;5044374;28;20089;-75
2022/03/28 02:30:42;;;;;;;19.88;4.82;;;;;;;5.15;80.02;100736.44;5044361;28;20030;-75
2022/03/28 02:33:08;;;;;;;19.45;7.15;;;;;;;5.12;80.07;100732.91;5044559;28;20021;-75
2022/03/28 02:35:34;;;;;;;23.05;6.00;;;;;;;5.06;80.13;100719.09;5044229;28;20029;-75
2022/03/28 02:38:01;;;;;;;14.85;5.72;;;;;;;5.10;80.15;100725.16;5044333;28;20025;-75
2022/03/28 02:40:31;;;;;;;23.48;6.07;;;;;;;5.17;79.93;100721.00;5044046;28;20481;-76
2022/03/28 02:42:58;;;;;;;16.27;5.97;;;;;;;5.14;80.04;100708.09;5043965;28;20068;-75
2022/03/28 02:45:25;;;;;;;18.27;6.32;;;;;;;5.13;80.14;100711.50;5043767;28;20037;-74
2022/03/28 02:47:50;;;;;;;18.83;7.00;;;;;;;5.13;80.00;100716.66;5043847;28;20496;-75
2022/03/28 02:50:16;;;;;;;21.98;7.20;;;;;;;5.16;79.76;100702.13;5043670;28;20041;-74
2022/03/28 02:52:41;;;;;;;17.52;6.97;;;;;;;5.13;79.44;100696.91;5025935;28;20032;-75
2022/03/28 02:55:07;;;;;;;19.50;7.35;;;;;;;5.19;79.49;100701.31;5043205;28;20575;-75
2022/03/28 02:57:33;;;;;;;27.65;8.05;;;;;;;5.16;79.82;100704.69;5043929;28;20021;-74
2022/03/28 02:59:58;;;;;;;17.42;6.25;;;;;;;5.16;79.81;100699.53;5043648;28;20033;-76
2022/03/28 03:02:24;;;;;;;23.20;8.43;;;;;;;5.10;79.89;100685.72;5025754;28;20033;-75
2022/03/28 03:04:49;;;;;;;19.67;7.28;;;;;;;4.92;80.19;100651.91;5043410;28;20022;-75
2022/03/28 03:07:15;;;;;;;21.60;7.53;;;;;;;5.07;79.94;100663.34;5043491;28;20021;-75
2022/03/28 03:09:40;;;;;;;28.05;8.45;;;;;;;5.11;79.90;100674.56;5043495;28;20185;-74
2022/03/28 03:12:06;;;;;;;25.25;8.50;;;;;;;5.03;79.83;100659.00;5025495;28;20051;-75
2022/03/28 03:14:32;;;;;;;21.50;7.90;;;;;;;5.10;79.66;100665.97;5043242;28;20021;-75
2022/03/28 03:16:57;;;;;;;16.98;5.20;;;;;;;5.12;79.69;100669.44;5025432;28;20027;-75
2022/03/28 03:19:22;;;;;;;22.42;8.77;;;;;;;5.20;79.70;100672.16;5043067;28;20029;-75
2022/03/28 03:21:48;;;;;;;20.85;6.50;;;;;;;5.20;79.48;100659.28;5025473;28;20049;-73
2022/03/28 03:24:14;;;;;;;23.20;9.48;;;;;;;5.18;79.51;100655.81;5024986;28;20033;-75
2022/03/28 03:26:39;;;;;;;26.98;8.68;;;;;;;5.16;79.30;100629.19;5043094;28;20040;-73
2022/03/28 03:29:04;;;;;;;19.27;6.82;;;;;;;5.28;79.28;100637.13;5025356;28;20025;-75
2022/03/28 03:31:30;;;;;;;21.08;7.40;;;;;;;5.27;79.13;100637.09;5043147;28;20333;-75
2022/03/28 03:33:55;;;;;;;19.13;8.23;;;;;;;5.26;79.08;100649.09;5042977;28;20111;-74
2022/03/28 03:36:21;;;;;;;27.13;8.35;;;;;;;5.27;79.16;100642.25;5043008;28;20033;-75
2022/03/28 03:38:46;;;;;;;19.58;8.32;;;;;;;5.21;79.25;100638.72;5042986;28;20039;-75
2022/03/28 03:41:11;;;;;;;25.65;8.55;;;;;;;5.24;79.45;100632.75;5042641;28;20044;-75
2022/03/28 03:43:37;;;;;;;19.20;6.70;;;;;;;5.27;79.46;100635.38;5025247;28;20030;-75
2022/03/28 03:46:02;;;;;;;22.60;8.63;;;;;;;5.26;79.50;100636.22;5024848;28;20470;-75
2022/03/28 03:48:29;;;;;;;16.92;4.35;;;;;;;5.17;79.63;100629.22;5042925;28;20029;-75
2022/03/28 03:50:55;;;;;;;22.80;6.65;;;;;;;5.16;79.99;100629.19;5042749;28;20032;-75
2022/03/28 03:53:20;;;;;;;21.80;6.50;;;;;;;5.17;80.33;100638.66;5042660;28;20385;-75
2022/03/28 03:55:47;;;;;;;28.92;7.28;;;;;;;5.13;80.63;100634.28;5042651;28;20032;-77
2022/03/28 03:58:13;;;;;;;31.63;9.95;;;;;;;5.10;81.48;100619.66;5043016;28;20432;-75
2022/03/28 04:00:40;;;;;;;25.90;7.55;;;;;;;5.19;81.79;100611.22;5042820;28;20266;-75
2022/03/28 04:03:05;;;;;;;25.48;7.78;;;;;;;5.21;82.06;100620.69;5042657;28;20026;-69
2022/03/28 04:05:32;;;;;;;31.90;9.18;;;;;;;5.20;82.18;100606.13;5042423;28;20029;-72
2022/03/28 04:07:59;;;;;;;19.48;5.93;;;;;;;5.20;82.51;100605.22;5042623;28;20080;-72
2022/03/28 04:10:24;;;;;;;30.67;8.10;;;;;;;5.16;82.77;100604.31;5042340;28;20022;-71
2022/03/28 04:12:49;;;;;;;22.65;7.60;;;;;;;5.05;83.06;100590.38;5042513;28;20029;-73
2022/03/28 04:15:15;;;;;;;18.23;6.78;;;;;;;5.10;83.07;100606.78;5042428;28;20045;-73
2022/03/28 04:17:44;;;;;;;12.75;5.60;;;;;;;5.07;83.49;100599.88;5042351;28;20057;-72
2022/03/28 04:20:12;;;;;;;17.52;6.55;;;;;;;5.01;83.43;100589.47;5045412;28;20029;-71
2022/03/28 04:22:39;;;;;;;47.75;12.93;;;;;;;4.84;83.23;100559.16;5046697;28;20509;-72
2022/03/28 04:25:05;;;;;;;38.58;12.75;;;;;;;4.86;83.13;100564.34;5028172;28;20032;-73
2022/03/28 04:27:31;;;;;;;32.63;9.60;;;;;;;4.96;83.57;100578.22;5028637;28;20029;-70
2022/03/28 04:29:56;;;;;;;39.65;12.70;;;;;;;4.98;83.21;100573.13;5028633;28;20036;-72
2022/03/28 04:32:22;;;;;;;40.17;13.02;;;;;;;4.93;83.43;100576.50;5046733;28;20025;-73
2022/03/28 04:34:47;;;;;;;21.20;8.32;;;;;;;4.84;83.75;100564.31;5027845;28;20032;-75
2022/03/28 04:37:13;;;;;;;34.20;9.93;;;;;;;4.86;83.83;100563.50;5028150;28;20037;-75
2022/03/28 04:39:38;;;;;;;35.47;10.18;;;;;;;4.74;84.15;100546.13;5045925;28;20018;-72
2022/03/28 04:42:04;;;;;;;34.88;11.18;;;;;;;4.68;83.98;100539.19;5027888;28;20037;-74
2022/03/28 04:44:29;;;;;;;29.83;9.98;;;;;;;4.63;84.35;100541.66;5045655;28;20057;-73
2022/03/28 04:46:54;;;;;;;35.45;9.82;;;;;;;4.67;84.84;100547.69;5046144;28;20033;-77
2022/03/28 04:49:20;;;;;;;23.67;7.30;;;;;;;4.69;84.78;100559.78;5027985;28;20173;-72
2022/03/28 04:51:45;;;;;;;21.05;8.27;;;;;;;4.80;84.55;100556.50;5045763;28;20120;-75
2022/03/28 04:54:11;;;;;;;33.67;12.05;;;;;;;4.61;84.79;100545.91;5045587;28;20529;-73
2022/03/28 04:56:36;;;;;;;25.73;10.38;;;;;;;4.74;84.71;100558.97;5045840;28;20022;-73
2022/03/28 04:59:04;;;;;;;41.10;13.25;;;;;;;4.73;84.71;100552.97;5045838;28;20025;-73
2022/03/28 05:01:29;;;;;;;19.17;6.20;;;;;;;4.55;84.57;100522.66;5045732;28;20109;-73
2022/03/28 05:03:55;;;;;;;43.55;13.88;;;;;;;4.75;84.62;100550.41;5045624;28;20107;-73
2022/03/28 05:06:20;;;;;;;41.25;14.77;;;;;;;4.74;84.70;100534.13;5045497;28;20398;-74
2022/03/28 05:08:45;;;;;;;31.48;8.80;;;;;;;4.63;85.13;100517.63;5045571;28;20021;-73
2022/03/28 05:11:12;;;;;;;55.20;13.23;;;;;;;4.67;85.11;100530.56;5027290;28;20517;-72
2022/03/28 05:13:37;;;;;;;26.13;11.25;;;;;;;4.61;85.29;100503.88;5045399;28;20009;-75
2022/03/28 05:16:03;;;;;;;34.40;12.52;;;;;;;4.78;85.12;100515.34;5045252;28;20033;-73
2022/03/28 05:18:28;;;;;;;40.50;10.65;;;;;;;4.77;85.58;100525.59;5045222;28;20468;-73
2022/03/28 05:20:53;;;;;;;34.65;12.35;;;;;;;4.76;85.35;100521.31;5045400;28;20024;-73
2022/03/28 05:23:19;;;;;;;46.17;13.63;;;;;;;4.61;85.09;100502.19;5045110;28;20022;-74
2022/03/28 05:25:44;;;;;;;38.30;12.07;;;;;;;4.74;85.13;100507.53;5044868;28;20132;-75
2022/03/28 05:28:09;;;;;;;32.72;11.00;;;;;;;4.80;85.36;100518.81;5045736;28;20136;-76
2022/03/28 05:30:35;;;;;;;28.95;11.75;;;;;;;4.84;84.96;100520.56;5044149;28;20037;-75
2022/03/28 05:33:01;;;;;;;27.35;11.27;;;;;;;4.87;84.93;100522.34;5045549;28;20064;-75
2022/03/28 05:35:27;;;;;;;38.25;14.73;;;;;;;4.84;85.03;100515.44;5045012;28;20029;-75
2022/03/28 05:37:53;;;;;;;47.25;14.93;;;;;;;4.95;85.20;100513.03;5045231;28;20030;-75
2022/03/28 05:40:19;;;;;;;37.47;13.55;;;;;;;5.10;84.99;100528.72;5044639;28;20488;-75
2022/03/28 05:42:44;;;;;;;33.67;13.65;;;;;;;5.14;84.92;100521.06;5026705;28;20080;-75
2022/03/28 05:45:12;;;;;;;39.65;13.93;;;;;;;5.29;84.77;100517.84;5044980;28;20026;-75
2022/03/28 05:47:38;;;;;;;34.33;11.65;;;;;;;5.36;84.40;100485.34;5027435;28;20032;-75
2022/03/28 05:50:04;;;;;;;34.03;13.85;;;;;;;5.48;84.07;100499.25;5045122;28;20056;-75
2022/03/28 05:52:30;;;;;;;40.00;14.40;;;;;;;5.66;83.43;100496.91;5027152;28;20021;-76
2022/03/28 05:54:55;;;;;;;41.63;14.23;;;;;;;5.59;83.22;100474.50;5044839;28;20029;-75
2022/03/28 05:57:20;;;;;;;32.80;13.30;;;;;;;5.86;83.21;100478.28;5027375;28;20458;-75
2022/03/28 05:59:46;;;;;;;33.78;13.43;;;;;;;6.23;82.40;100477.84;5045149;28;20018;-77
2022/03/28 06:02:11;;;;;;;20.50;9.13;;;;;;;6.52;81.22;100492.75;5027267;28;20083;-76
2022/03/28 06:04:37;;;;;;;41.80;15.05;;;;;;;6.58;79.63;100466.19;5044933;28;20021;-75
2022/03/28 06:07:02;;;;;;;40.22;14.65;;;;;;;6.82;78.99;100482.72;5026986;28;20022;-75
2022/03/28 06:09:27;;;;;;;35.38;15.30;;;;;;;6.86;78.20;100478.44;5044773;28;20022;-74
2022/03/28 06:11:53;;;;;;;33.83;13.13;;;;;;;6.72;77.52;100475.75;5044797;28;20248;-74
2022/03/28 06:14:18;;;;;;;39.55;15.77;;;;;;;6.76;77.44;100482.63;5027889;28;20089;-76
2022/03/28 06:16:44;;;;;;;36.30;14.60;;;;;;;6.76;77.36;100478.34;5044239;28;20069;-77
2022/03/28 06:19:09;;;;;;;40.10;14.32;;;;;;;6.64;77.01;100466.22;5043955;28;20017;-76
2022/03/28 06:21:34;;;;;;;30.30;12.80;;;;;;;6.65;76.83;100464.50;5044028;28;20021;-77
2022/03/28 06:24:00;;;;;;;44.97;15.05;;;;;;;6.42;76.91;100466.00;5044177;28;20044;-76
2022/03/28 06:26:26;;;;;;;44.22;16.10;;;;;;;6.47;77.42;100480.69;5043484;28;20025;-76
2022/03/28 06:28:52;;;;;;;44.30;15.13;;;;;;;6.38;77.59;100460.81;5044104;28;20033;-76
2022/03/28 06:31:17;;;;;;;32.10;14.43;;;;;;;6.34;77.57;100470.25;5043790;28;20526;-76
2022/03/28 06:33:43;;;;;;;41.33;15.52;;;;;;;6.26;77.79;100475.31;5043906;28;20476;-77
2022/03/28 06:36:08;;;;;;;36.53;12.80;;;;;;;6.22;78.24;100464.94;5043892;28;20032;-76
2022/03/28 06:38:35;;;;;;;38.97;15.05;;;;;;;6.24;77.78;100458.09;5043697;28;20085;-76
2022/03/28 06:41:01;;;;;;;34.42;12.68;;;;;;;6.12;78.30;100443.38;5043193;28;20119;-76
2022/03/28 06:43:26;;;;;;;30.13;11.27;;;;;;;6.08;78.85;100452.78;5043277;28;20029;-76
2022/03/28 06:45:51;;;;;;;36.13;15.10;;;;;;;6.04;79.13;100449.31;5043381;28;20021;-76
2022/03/28 06:48:19;;;;;;;38.70;14.35;;;;;;;6.24;79.33;100458.09;5043541;28;20037;-76
2022/03/28 06:50:44;;;;;;;38.60;11.98;;;;;;;6.32;78.75;100451.31;5043291;28;20068;-76
2022/03/28 06:53:10;;;;;;;44.78;12.15;;;;;;;6.41;78.74;100451.41;5043469;28;20464;-76
2022/03/28 06:55:36;;;;;;;44.22;15.45;;;;;;;6.41;78.33;100459.13;5043079;28;20021;-76
2022/03/28 06:58:01;;;;;;;37.35;12.80;;;;;;;6.38;78.35;100442.75;5043360;28;20448;-77
2022/03/28 07:00:26;;;;;;;36.55;13.55;;;;;;;6.43;78.28;100446.25;5043256;28;20021;-76
2022/03/28 07:02:52;;;;;;;40.42;11.90;;;;;;;6.47;77.91;100444.56;5025562;28;20025;-77
2022/03/28 07:05:17;;;;;;;33.65;11.13;;;;;;;6.49;77.46;100428.25;5043024;28;20489;-75
2022/03/28 07:07:48;;;;;;;40.20;14.98;;;;;;;6.44;77.50;100427.34;5025169;28;20034;-75
2022/03/28 07:10:16;;;;;;;26.60;12.23;;;;;;;6.25;77.85;100428.88;5042785;28;20025;-78
2022/03/28 07:12:42;;;;;;;36.58;16.58;;;;;;;6.13;78.42;100404.72;5042963;28;20021;-75
2022/03/28 07:15:12;;;;;;;27.17;11.05;;;;;;;6.09;78.37;100407.25;5042968;28;20060;-75
2022/03/28 07:17:56;;;;;;;42.88;16.20;;;;;;;5.98;79.04;100409.66;5043195;28;20032;-76
2022/03/28 07:20:23;;;;;;;38.08;15.85;;;;;;;5.99;79.21;100408.84;5043135;28;20163;-76
2022/03/28 07:22:49;;;;;;;22.50;9.38;;;;;;;5.88;79.73;100404.44;5042846;28;20144;-76
2022/03/28 07:25:15;;;;;;;49.17;18.48;;;;;;;5.95;79.77;100408.81;5042714;28;20378;-75
2022/03/28 07:27:41;;;;;;;37.22;15.32;;;;;;;6.00;79.68;100397.69;5024973;28;20083;-76
2022/03/28 07:30:08;;;;;;;37.00;14.90;;;;;;;6.02;79.52;100385.69;5042809;28;20465;-76
2022/03/28 07:32:35;;;;;;;39.53;14.95;;;;;;;6.03;79.79;100397.72;5025147;28;20060;-75
2022/03/28 07:35:01;;;;;;;35.67;12.80;;;;;;;6.09;79.44;100384.91;5042941;28;20025;-77
2022/03/28 07:37:27;;;;;;;40.92;11.98;;;;;;;6.11;79.67;100384.91;5042622;28;20113;-77
2022/03/28 07:39:52;;;;;;;42.28;14.52;;;;;;;6.09;79.68;100384.91;5042445;28;20030;-76
2022/03/28 07:42:18;;;;;;;39.30;14.82;;;;;;;6.10;79.62;100362.59;5042411;28;20152;-75
2022/03/28 07:44:44;;;;;;;36.22;15.45;;;;;;;6.07;79.29;100342.81;5042515;28;20026;-77
2022/03/28 07:47:10;;;;;;;35.40;14.27;;;;;;;6.11;79.32;100349.72;5042639;28;20496;-77
2022/03/28 07:49:36;;;;;;;19.48;8.25;;;;;;;6.05;79.54;100350.50;5042619;28;20022;-77
2022/03/28 07:52:03;;;;;;;20.98;10.23;;;;;;;6.06;79.27;100344.53;5042627;28;20033;-77
2022/03/28 07:54:28;;;;;;;45.00;17.35;;;;;;;6.03;79.54;100352.19;5041799;28;20097;-75
2022/03/28 07:56:54;;;;;;;22.65;10.00;;;;;;;6.04;79.42;100337.56;5042578;28;20029;-76
2022/03/28 07:59:19;;;;;;;30.55;13.77;;;;;;;6.05;79.25;100335.03;5042766;28;20381;-77
2022/03/28 08:01:45;;;;;;;51.92;11.68;;;;;;;6.13;79.07;100335.13;5024796;28;20029;-76
2022/03/28 08:04:10;;;;;;;41.08;15.57;;;;;;;6.15;79.01;100343.72;5042328;28;20036;-75
2022/03/28 08:06:35;;;;;;;29.63;9.32;;;;;;;6.09;78.93;100304.16;5042226;28;20035;-76
2022/03/28 08:09:01;;;;;;;37.47;15.10;;;;;;;6.08;79.22;100334.22;5024536;28;20029;-76
2022/03/28 08:11:26;;;;;;;30.85;12.13;;;;;;;6.12;79.01;100319.66;5042294;28;20071;-76
2022/03/28 08:13:51;;;;;;;30.35;12.88;;;;;;;6.27;78.89;100322.34;5024582;28;20013;-75
2022/03/28 08:16:17;;;;;;;30.92;11.10;;;;;;;6.21;78.50;100283.63;5042467;28;20021;-78
2022/03/28 08:18:42;;;;;;;38.03;14.43;;;;;;;6.16;78.50;100309.38;5042987;28;20082;-77
2022/03/28 08:21:11;;;;;;;27.30;11.07;;;;;;;6.18;78.57;100302.50;5042636;28;20022;-78
2022/03/28 08:23:37;;;;;;;39.88;15.02;;;;;;;6.34;78.56;100301.78;5042097;28;20083;-77
2022/03/28 08:26:04;;;;;;;44.85;15.05;;;;;;;6.43;78.76;100322.47;5042208;28;20029;-79
2022/03/28 08:28:30;;;;;;;38.97;12.55;;;;;;;6.52;78.31;100327.69;5042616;28;20537;-76
2022/03/28 08:30:55;;;;;;;43.45;17.67;;;;;;;6.37;77.36;100278.59;5042234;28;20239;-76
2022/03/28 08:33:20;;;;;;;39.42;15.15;;;;;;;6.54;77.66;100320.81;5042395;28;20025;-77
2022/03/28 08:35:45;;;;;;;39.42;16.20;;;;;;;6.52;77.48;100308.75;5042371;28;20511;-75
2022/03/28 08:38:11;;;;;;;30.80;11.77;;;;;;;6.38;77.41;100288.91;5042442;28;20108;-76
2022/03/28 08:40:37;;;;;;;23.85;10.45;;;;;;;6.16;77.48;100265.56;5041785;28;20030;-75
2022/03/28 08:43:04;;;;;;;30.10;13.50;;;;;;;6.44;77.43;100311.28;5042260;28;20026;-76
2022/03/28 08:45:30;;;;;;;36.25;14.43;;;;;;;6.34;77.58;100302.66;5042316;28;20021;-78
2022/03/28 08:47:56;;;;;;;37.47;11.70;;;;;;;6.26;77.60;100292.25;5024173;28;20134;-75
2022/03/28 08:50:22;;;;;;;32.60;11.23;;;;;;;6.31;77.76;100288.00;5042559;28;20041;-77
2022/03/28 08:52:47;;;;;;;32.17;12.50;;;;;;;6.34;77.60;100294.91;5024231;28;20102;-76
2022/03/28 08:55:14;;;;;;;40.90;16.13;;;;;;;6.24;77.53;100275.91;5042008;28;20104;-76
2022/03/28 08:57:40;;;;;;;26.95;11.68;;;;;;;6.23;77.61;100265.59;5042227;28;20167;-77
2022/03/28 09:00:08;;;;;;;46.35;14.90;;;;;;;6.09;77.90;100280.97;5042004;28;20041;-77
2022/03/28 09:02:42;;;;;;;39.55;16.80;;;;;;;6.03;78.34;100274.88;5041949;28;20025;-76
2022/03/28 09:05:09;;;;;;;48.08;16.45;;;;;;;6.14;78.30;100287.88;5042933;28;20051;-78
2022/03/28 09:07:35;;;;;;;37.00;16.10;;;;;;;6.05;78.23;100273.19;5045742;28;20051;-78
2022/03/28 09:10:11;;;;;;;45.53;14.25;;;;;;;6.28;77.94;100302.56;5045269;28;20053;-77
2022/03/28 09:12:41;;;;;;;31.75;12.25;;;;;;;6.35;77.63;100304.34;5045510;28;20048;-74
2022/03/28 09:15:09;;;;;;;46.03;17.23;;;;;;;6.32;77.48;100314.66;5045437;28;20032;-74
2022/03/28 09:17:38;;;;;;;42.15;16.20;;;;;;;6.31;77.69;100300.03;5045320;28;20021;-74
2022/03/28 09:20:04;;;;;;;31.27;13.80;;;;;;;6.37;77.63;100294.06;5045191;28;20079;-75
2022/03/28 09:22:35;;;;;;;31.88;14.32;;;;;;;6.42;77.34;100282.91;5045422;28;20025;-76
2022/03/28 09:25:07;;;;;;;41.27;14.13;;;;;;;6.33;77.14;100277.69;5045007;28;20074;-76
2022/03/28 09:27:36;;;;;;;30.58;10.65;;;;;;;6.34;77.11;100284.59;5045212;28;20029;-75
2022/03/28 09:30:08;;;;;;;28.98;10.60;;;;;;;6.34;77.40;100284.59;5045332;28;20121;-76
2022/03/28 09:32:34;;;;;;;;;;;;;;;6.34;77.34;100273.41;5045751;28;20031;-77
2022/03/28 09:35:13;;;;;;;41.97;14.45;;;;;;;6.28;77.48;100251.88;5026998;28;19916;-76
2022/03/28 09:38:04;;;;;;;40.58;14.80;;;;;;;6.33;77.58;100262.22;5045262;28;20377;-74
2022/03/28 09:40:53;;;;;;;50.97;15.55;;;;;;;6.34;77.45;100266.53;5026903;28;20047;-75
2022/03/28 09:43:30;;;;;;;42.88;15.32;;;;;;;6.41;77.67;100251.94;5044972;28;20037;-76
2022/03/28 09:45:57;;;;;;;47.20;17.02;;;;;;;6.55;77.14;100270.13;5044888;28;20031;-75
2022/03/28 09:48:26;;;;;;;45.03;14.43;;;;;;;6.63;76.97;100285.63;5045204;28;20017;-75
2022/03/28 09:51:01;;;;;;;50.95;18.27;;;;;;;6.69;76.44;100289.09;5044943;28;20029;-75
2022/03/28 09:53:38;;;;;;;28.05;12.32;;;;;;;6.79;76.04;100287.44;5044786;28;20025;-76
2022/03/28 09:56:06;;;;;;;39.78;14.70;;;;;;;6.79;75.70;100281.41;5044452;28;20029;-77
2022/03/28 09:58:59;;;;;;;44.70;18.73;;;;;;;6.90;75.69;100268.56;5044676;28;20025;-75
2022/03/28 10:01:39;;;;;;;41.65;16.35;;;;;;;7.00;75.11;100266.88;5026531;28;20079;-75
2022/03/28 10:04:08;;;;;;;32.45;14.13;;;;;;;7.13;74.76;100247.13;5044522;28;20256;-75
2022/03/28 10:06:35;;;;;;;38.67;11.93;;;;;;;7.11;74.42;100254.03;5026395;28;20032;-75
2022/03/28 10:09:01;;;;;;;32.85;14.52;;;;;;;7.14;73.92;100243.72;5026505;28;20025;-75
2022/03/28 10:11:27;;;;;;;31.85;13.45;;;;;;;7.16;73.81;100239.38;5044182;28;20141;-76
2022/03/28 10:13:53;;;;;;;36.83;15.98;;;;;;;7.27;73.88;100232.53;5044520;28;20058;-76
2022/03/28 10:16:19;;;;;;;48.72;18.88;;;;;;;7.37;73.12;100235.13;5043815;28;20112;-75
2022/03/28 10:18:46;;;;;;;41.80;15.93;;;;;;;7.44;73.07;100242.06;5044223;28;20048;-77
2022/03/28 10:21:26;;;;;;;43.75;17.02;;;;;;;7.60;73.37;100242.06;5026393;28;20040;-75
2022/03/28 10:24:03;;;;;;;43.13;15.55;;;;;;;7.93;71.98;100223.16;5044219;28;20059;-76
2022/03/28 10:26:33;;;;;;;46.70;16.10;;;;;;;7.93;71.02;100233.47;5043927;28;20591;-75
2022/03/28 10:29:11;;;;;;;38.70;15.07;;;;;;;8.23;70.48;100206.72;5026427;28;20381;-76
2022/03/28 10:31:52;;;;;;;46.28;18.30;;;;;;;8.30;70.09;100213.59;5044227;28;20119;-76
2022/03/28 10:34:43;;;;;;;41.33;16.92;;;;;;;8.29;69.35;100217.91;5044158;28;20045;-75
2022/03/28 10:37:36;;;;;;;39.00;14.60;;;;;;;8.38;69.27;100214.47;5044023;28;20080;-76
2022/03/28 10:40:23;;;;;;;44.40;15.68;;;;;;;8.55;68.96;100206.69;5037321;28;20236;-76
2022/03/28 10:42:55;;;;;;;47.17;15.60;;;;;;;8.87;68.00;100215.19;5025703;28;20145;-74
2022/03/28 10:45:21;;;;;;;18.20;7.78;;;;;;;9.08;67.66;100208.16;5043813;28;20029;-76
2022/03/28 10:47:54;;;;;;;49.17;15.52;;;;;;;9.29;66.65;100207.19;5044068;28;20507;-76
2022/03/28 10:50:25;;;;;;;32.63;13.20;;;;;;;9.69;65.44;100191.34;5043855;28;20022;-76
2022/03/28 10:53:13;;;;;;;34.78;13.75;;;;;;;10.15;64.41;100190.06;5043824;28;20071;-75
2022/03/28 10:55:53;;;;;;;39.22;14.80;;;;;;;11.10;62.82;100188.97;5043339;28;20074;-76
2022/03/28 10:58:28;;;;;;;34.20;11.60;;;;;;;11.99;60.18;100148.56;5043725;28;20026;-76
2022/03/28 11:01:06;;;;;;;32.15;12.48;;;;;;;12.46;57.41;100196.31;5043482;28;20036;-77
2022/03/28 11:03:35;;;;;;;42.88;13.60;;;;;;;12.67;56.75;100199.38;5043353;28;20178;-78
2022/03/28 11:06:01;;;;;;;26.55;12.00;;;;;;;12.93;55.00;100175.34;5025658;28;20021;-77
2022/03/28 11:08:45;;;;;;;33.40;13.10;;;;;;;13.21;54.30;100171.28;5043855;28;20083;-78
2022/03/28 11:11:21;;;;;;;23.65;10.98;;;;;;;13.65;52.79;100175.47;5043291;28;20025;-79
2022/03/28 11:14:09;;;;;;;32.22;12.68;;;;;;;13.90;51.50;100167.03;5043716;28;20017;-77
2022/03/28 11:16:55;;;;;;;28.15;11.23;;;;;;;14.25;51.27;100167.81;5043469;28;20128;-77
2022/03/28 11:19:33;;;;;;;22.40;6.53;;;;;;;14.56;49.29;100177.41;5043490;28;20025;-81
2022/03/28 11:21:58;;;;;;;29.83;12.52;;;;;;;14.23;49.30;100170.47;5043261;28;20021;-77
2022/03/28 11:24:48;;;;;;;30.42;10.63;;;;;;;13.88;50.41;100165.31;5025426;28;20030;-76
2022/03/28 11:27:16;;;;;;;34.08;12.98;;;;;;;13.60;50.47;100152.13;5025667;28;20476;-77